sensor_id;sensor_type;location;lat;lon;timestamp;P1;durP1;ratioP1;P2;durP2;ratioP2
8913;SDS011;4492;48.736;9.092;2023-02-03T00:01:10;1.80;;;0.90;;
8913;SDS011;4492;48.736;9.092;2023-02-03T00:03:36;0.80;;;0.60;;
8913;SDS011;4492;48.736;9.092;2023-02-03T00:06:02;1.57;;;0.60;;
8913;SDS011;4492;48.736;9.092;2023-02-03T00:08:28;1.73;;;0.80;;
8913;SDS011;4492;48.736;9.092;2023-02-03T00:10:54;1.70;;;0.53;;
8913;SDS011;4492;48.736;9.092;2023-02-03T00:13:20;0.90;;;0.63;;
8913;SDS011;4492;48.736;9.092;2023-02-03T00:15:46;0.50;;;0.50;;
8913;SDS011;4492;48.736;9.092;2023-02-03T00:18:12;1.43;;;0.60;;
8913;SDS011;4492;48.736;9.092;2023-02-03T00:20:37;3.13;;;0.67;;
8913;SDS011;4492;48.736;9.092;2023-02-03T00:23:03;2.00;;;0.80;;
8913;SDS011;4492;48.736;9.092;2023-02-03T00:25:30;0.97;;;0.70;;
8913;SDS011;4492;48.736;9.092;2023-02-03T00:27:56;0.60;;;0.60;;
8913;SDS011;4492;48.736;9.092;2023-02-03T00:30:21;0.50;;;0.50;;
8913;SDS011;4492;48.736;9.092;2023-02-03T00:32:47;1.50;;;0.93;;
8913;SDS011;4492;48.736;9.092;2023-02-03T00:35:12;0.80;;;0.40;;
8913;SDS011;4492;48.736;9.092;2023-02-03T00:37:38;1.20;;;0.60;;
8913;SDS011;4492;48.736;9.092;2023-02-03T00:40:04;1.40;;;0.40;;
8913;SDS011;4492;48.736;9.092;2023-02-03T00:42:30;0.70;;;0.70;;
8913;SDS011;4492;48.736;9.092;2023-02-03T00:44:55;0.90;;;0.47;;
8913;SDS011;4492;48.736;9.092;2023-02-03T00:47:21;1.23;;;0.50;;
8913;SDS011;4492;48.736;9.092;2023-02-03T00:49:46;0.40;;;0.40;;
8913;SDS011;4492;48.736;9.092;2023-02-03T00:52:12;1.83;;;0.43;;
8913;SDS011;4492;48.736;9.092;2023-02-03T00:54:37;0.40;;;0.40;;
8913;SDS011;4492;48.736;9.092;2023-02-03T00:57:03;1.27;;;0.50;;
8913;SDS011;4492;48.736;9.092;2023-02-03T00:59:28;0.83;;;0.30;;
8913;SDS011;4492;48.736;9.092;2023-02-03T01:01:54;0.50;;;0.50;;
8913;SDS011;4492;48.736;9.092;2023-02-03T01:04:19;0.77;;;0.40;;
8913;SDS011;4492;48.736;9.092;2023-02-03T01:06:45;0.50;;;0.50;;
8913;SDS011;4492;48.736;9.092;2023-02-03T01:09:10;1.50;;;0.40;;
8913;SDS011;4492;48.736;9.092;2023-02-03T01:11:36;0.67;;;0.63;;
8913;SDS011;4492;48.736;9.092;2023-02-03T01:14:01;0.83;;;0.83;;
8913;SDS011;4492;48.736;9.092;2023-02-03T01:16:28;2.27;;;0.97;;
8913;SDS011;4492;48.736;9.092;2023-02-03T01:18:54;0.40;;;0.40;;
8913;SDS011;4492;48.736;9.092;2023-02-03T01:21:21;0.47;;;0.47;;
8913;SDS011;4492;48.736;9.092;2023-02-03T01:23:49;1.30;;;0.57;;
8913;SDS011;4492;48.736;9.092;2023-02-03T01:26:15;0.57;;;0.57;;
8913;SDS011;4492;48.736;9.092;2023-02-03T01:28:43;2.50;;;0.80;;
8913;SDS011;4492;48.736;9.092;2023-02-03T01:31:15;0.70;;;0.60;;
8913;SDS011;4492;48.736;9.092;2023-02-03T01:33:42;0.50;;;0.50;;
8913;SDS011;4492;48.736;9.092;2023-02-03T01:36:13;0.60;;;0.60;;
8913;SDS011;4492;48.736;9.092;2023-02-03T01:38:40;2.07;;;0.80;;
8913;SDS011;4492;48.736;9.092;2023-02-03T01:41:06;1.93;;;0.83;;
8913;SDS011;4492;48.736;9.092;2023-02-03T01:43:35;0.97;;;0.70;;
8913;SDS011;4492;48.736;9.092;2023-02-03T01:49:03;4.70;;;1.33;;
8913;SDS011;4492;48.736;9.092;2023-02-03T01:51:35;1.90;;;0.80;;
8913;SDS011;4492;48.736;9.092;2023-02-03T01:54:04;1.50;;;0.80;;
8913;SDS011;4492;48.736;9.092;2023-02-03T01:56:34;1.33;;;0.90;;
8913;SDS011;4492;48.736;9.092;2023-02-03T01:59:03;2.10;;;0.90;;
8913;SDS011;4492;48.736;9.092;2023-02-03T02:01:29;1.30;;;1.03;;
8913;SDS011;4492;48.736;9.092;2023-02-03T02:03:57;3.47;;;0.77;;
8913;SDS011;4492;48.736;9.092;2023-02-03T02:06:25;3.63;;;0.93;;
8913;SDS011;4492;48.736;9.092;2023-02-03T02:08:51;1.37;;;0.80;;
8913;SDS011;4492;48.736;9.092;2023-02-03T02:11:17;1.87;;;0.80;;
8913;SDS011;4492;48.736;9.092;2023-02-03T02:13:45;1.93;;;0.97;;
8913;SDS011;4492;48.736;9.092;2023-02-03T02:18:51;2.77;;;1.27;;
8913;SDS011;4492;48.736;9.092;2023-02-03T02:24:40;1.80;;;1.40;;
8913;SDS011;4492;48.736;9.092;2023-02-03T02:27:36;1.40;;;1.00;;
8913;SDS011;4492;48.736;9.092;2023-02-03T02:36:05;1.60;;;1.33;;
8913;SDS011;4492;48.736;9.092;2023-02-03T02:38:42;1.53;;;1.30;;
8913;SDS011;4492;48.736;9.092;2023-02-03T02:41:15;2.33;;;1.33;;
8913;SDS011;4492;48.736;9.092;2023-02-03T02:43:56;3.97;;;1.30;;
8913;SDS011;4492;48.736;9.092;2023-02-03T02:46:40;1.23;;;1.13;;
8913;SDS011;4492;48.736;9.092;2023-02-03T02:49:24;2.20;;;1.10;;
8913;SDS011;4492;48.736;9.092;2023-02-03T02:51:57;3.77;;;1.20;;
8913;SDS011;4492;48.736;9.092;2023-02-03T02:54:26;2.13;;;1.73;;
8913;SDS011;4492;48.736;9.092;2023-02-03T02:56:54;2.40;;;1.30;;
8913;SDS011;4492;48.736;9.092;2023-02-03T02:59:23;2.30;;;1.10;;
8913;SDS011;4492;48.736;9.092;2023-02-03T03:01:48;2.93;;;1.10;;
8913;SDS011;4492;48.736;9.092;2023-02-03T03:04:15;3.40;;;1.30;;
8913;SDS011;4492;48.736;9.092;2023-02-03T03:07:07;1.00;;;0.90;;
8913;SDS011;4492;48.736;9.092;2023-02-03T03:09:37;2.10;;;1.10;;
8913;SDS011;4492;48.736;9.092;2023-02-03T03:12:16;1.07;;;1.00;;
8913;SDS011;4492;48.736;9.092;2023-02-03T03:14:47;2.80;;;1.10;;
8913;SDS011;4492;48.736;9.092;2023-02-03T03:17:23;1.47;;;0.80;;
8913;SDS011;4492;48.736;9.092;2023-02-03T03:19:56;1.67;;;1.00;;
8913;SDS011;4492;48.736;9.092;2023-02-03T03:22:29;0.73;;;0.60;;
8913;SDS011;4492;48.736;9.092;2023-02-03T03:25:02;1.27;;;0.80;;
8913;SDS011;4492;48.736;9.092;2023-02-03T03:27:37;2.77;;;0.80;;
8913;SDS011;4492;48.736;9.092;2023-02-03T03:32:35;0.60;;;0.60;;
8913;SDS011;4492;48.736;9.092;2023-02-03T03:35:02;0.60;;;0.60;;
8913;SDS011;4492;48.736;9.092;2023-02-03T03:37:40;0.93;;;0.60;;
8913;SDS011;4492;48.736;9.092;2023-02-03T03:40:10;1.77;;;0.50;;
8913;SDS011;4492;48.736;9.092;2023-02-03T03:42:50;0.50;;;0.50;;
8913;SDS011;4492;48.736;9.092;2023-02-03T03:47:48;0.53;;;0.53;;
8913;SDS011;4492;48.736;9.092;2023-02-03T03:50:21;0.70;;;0.40;;
8913;SDS011;4492;48.736;9.092;2023-02-03T03:52:50;1.53;;;0.50;;
8913;SDS011;4492;48.736;9.092;2023-02-03T03:55:18;0.20;;;0.20;;
8913;SDS011;4492;48.736;9.092;2023-02-03T03:57:47;0.40;;;0.30;;
8913;SDS011;4492;48.736;9.092;2023-02-03T04:00:19;1.40;;;0.40;;
8913;SDS011;4492;48.736;9.092;2023-02-03T04:02:49;3.07;;;0.20;;
8913;SDS011;4492;48.736;9.092;2023-02-03T04:05:17;0.57;;;0.30;;
8913;SDS011;4492;48.736;9.092;2023-02-03T04:07:44;0.20;;;0.20;;
8913;SDS011;4492;48.736;9.092;2023-02-03T04:10:15;0.40;;;0.10;;
8913;SDS011;4492;48.736;9.092;2023-02-03T04:12:49;0.20;;;0.10;;
8913;SDS011;4492;48.736;9.092;2023-02-03T04:15:15;0.80;;;0.23;;
8913;SDS011;4492;48.736;9.092;2023-02-03T04:17:40;0.47;;;0.20;;
8913;SDS011;4492;48.736;9.092;2023-02-03T04:20:06;0.60;;;0.20;;
8913;SDS011;4492;48.736;9.092;2023-02-03T04:22:32;0.97;;;0.40;;
8913;SDS011;4492;48.736;9.092;2023-02-03T04:24:57;0.53;;;0.30;;
8913;SDS011;4492;48.736;9.092;2023-02-03T04:27:25;1.73;;;0.40;;
8913;SDS011;4492;48.736;9.092;2023-02-03T04:29:51;0.30;;;0.27;;
8913;SDS011;4492;48.736;9.092;2023-02-03T04:32:17;0.30;;;0.30;;
8913;SDS011;4492;48.736;9.092;2023-02-03T04:34:42;0.87;;;0.27;;
8913;SDS011;4492;48.736;9.092;2023-02-03T04:37:08;0.30;;;0.30;;
8913;SDS011;4492;48.736;9.092;2023-02-03T04:39:33;1.43;;;0.40;;
8913;SDS011;4492;48.736;9.092;2023-02-03T04:41:59;0.30;;;0.30;;
8913;SDS011;4492;48.736;9.092;2023-02-03T04:44:24;1.53;;;1.03;;
8913;SDS011;4492;48.736;9.092;2023-02-03T04:46:50;1.07;;;0.60;;
8913;SDS011;4492;48.736;9.092;2023-02-03T04:49:15;0.53;;;0.37;;
8913;SDS011;4492;48.736;9.092;2023-02-03T04:51:41;3.50;;;0.70;;
8913;SDS011;4492;48.736;9.092;2023-02-03T04:54:08;1.20;;;0.40;;
8913;SDS011;4492;48.736;9.092;2023-02-03T04:56:35;2.10;;;0.70;;
8913;SDS011;4492;48.736;9.092;2023-02-03T04:59:01;0.63;;;0.47;;
8913;SDS011;4492;48.736;9.092;2023-02-03T05:01:26;0.60;;;0.50;;
8913;SDS011;4492;48.736;9.092;2023-02-03T05:03:52;1.50;;;0.77;;
8913;SDS011;4492;48.736;9.092;2023-02-03T05:06:21;1.83;;;0.70;;
8913;SDS011;4492;48.736;9.092;2023-02-03T05:08:48;2.20;;;0.60;;
8913;SDS011;4492;48.736;9.092;2023-02-03T05:11:14;0.90;;;0.70;;
8913;SDS011;4492;48.736;9.092;2023-02-03T05:13:39;1.20;;;0.90;;
8913;SDS011;4492;48.736;9.092;2023-02-03T05:16:05;3.17;;;0.80;;
8913;SDS011;4492;48.736;9.092;2023-02-03T05:18:30;1.47;;;0.70;;
8913;SDS011;4492;48.736;9.092;2023-02-03T05:20:56;1.20;;;0.80;;
8913;SDS011;4492;48.736;9.092;2023-02-03T05:23:22;0.93;;;0.70;;
8913;SDS011;4492;48.736;9.092;2023-02-03T05:25:47;2.43;;;0.70;;
8913;SDS011;4492;48.736;9.092;2023-02-03T05:28:13;1.00;;;0.80;;
8913;SDS011;4492;48.736;9.092;2023-02-03T05:30:38;2.40;;;0.60;;
8913;SDS011;4492;48.736;9.092;2023-02-03T05:33:05;2.03;;;0.70;;
8913;SDS011;4492;48.736;9.092;2023-02-03T05:35:30;3.20;;;1.30;;
8913;SDS011;4492;48.736;9.092;2023-02-03T05:37:56;2.10;;;0.80;;
8913;SDS011;4492;48.736;9.092;2023-02-03T05:40:23;2.73;;;0.97;;
8913;SDS011;4492;48.736;9.092;2023-02-03T05:43:08;2.07;;;1.00;;
8913;SDS011;4492;48.736;9.092;2023-02-03T05:45:33;1.30;;;0.90;;
8913;SDS011;4492;48.736;9.092;2023-02-03T05:47:59;3.03;;;0.80;;
8913;SDS011;4492;48.736;9.092;2023-02-03T05:50:26;4.03;;;0.90;;
8913;SDS011;4492;48.736;9.092;2023-02-03T05:52:58;6.20;;;1.27;;
8913;SDS011;4492;48.736;9.092;2023-02-03T05:55:25;2.63;;;0.93;;
8913;SDS011;4492;48.736;9.092;2023-02-03T05:57:52;7.30;;;1.30;;
8913;SDS011;4492;48.736;9.092;2023-02-03T06:00:18;4.47;;;2.00;;
8913;SDS011;4492;48.736;9.092;2023-02-03T06:02:46;1.30;;;1.20;;
8913;SDS011;4492;48.736;9.092;2023-02-03T06:05:19;3.10;;;1.07;;
8913;SDS011;4492;48.736;9.092;2023-02-03T06:07:45;6.77;;;1.30;;
8913;SDS011;4492;48.736;9.092;2023-02-03T06:10:11;2.10;;;1.20;;
8913;SDS011;4492;48.736;9.092;2023-02-03T06:12:38;5.27;;;1.00;;
8913;SDS011;4492;48.736;9.092;2023-02-03T06:15:04;2.10;;;1.37;;
8913;SDS011;4492;48.736;9.092;2023-02-03T06:17:30;3.03;;;1.30;;
8913;SDS011;4492;48.736;9.092;2023-02-03T06:19:55;4.07;;;1.20;;
8913;SDS011;4492;48.736;9.092;2023-02-03T06:22:21;4.67;;;1.00;;
8913;SDS011;4492;48.736;9.092;2023-02-03T06:24:46;2.43;;;1.03;;
8913;SDS011;4492;48.736;9.092;2023-02-03T06:27:12;2.63;;;1.00;;
8913;SDS011;4492;48.736;9.092;2023-02-03T06:29:38;2.20;;;1.20;;
8913;SDS011;4492;48.736;9.092;2023-02-03T06:32:04;1.13;;;0.90;;
8913;SDS011;4492;48.736;9.092;2023-02-03T06:34:30;1.27;;;0.90;;
8913;SDS011;4492;48.736;9.092;2023-02-03T06:36:56;1.10;;;0.80;;
8913;SDS011;4492;48.736;9.092;2023-02-03T06:39:22;3.00;;;1.00;;
8913;SDS011;4492;48.736;9.092;2023-02-03T06:41:47;2.07;;;0.80;;
8913;SDS011;4492;48.736;9.092;2023-02-03T06:44:15;2.43;;;0.90;;
8913;SDS011;4492;48.736;9.092;2023-02-03T06:46:40;3.53;;;1.00;;
8913;SDS011;4492;48.736;9.092;2023-02-03T06:49:06;1.00;;;0.80;;
8913;SDS011;4492;48.736;9.092;2023-02-03T06:51:31;1.70;;;0.80;;
8913;SDS011;4492;48.736;9.092;2023-02-03T06:53:57;1.03;;;0.90;;
8913;SDS011;4492;48.736;9.092;2023-02-03T06:56:23;1.30;;;0.87;;
8913;SDS011;4492;48.736;9.092;2023-02-03T06:58:48;4.20;;;1.03;;
8913;SDS011;4492;48.736;9.092;2023-02-03T07:01:14;2.30;;;0.90;;
8913;SDS011;4492;48.736;9.092;2023-02-03T07:03:39;3.40;;;1.00;;
8913;SDS011;4492;48.736;9.092;2023-02-03T07:06:05;3.63;;;1.73;;
8913;SDS011;4492;48.736;9.092;2023-02-03T07:08:31;3.20;;;1.03;;
8913;SDS011;4492;48.736;9.092;2023-02-03T07:10:56;4.13;;;1.20;;
8913;SDS011;4492;48.736;9.092;2023-02-03T07:13:22;4.03;;;1.03;;
8913;SDS011;4492;48.736;9.092;2023-02-03T07:15:47;1.37;;;0.80;;
8913;SDS011;4492;48.736;9.092;2023-02-03T07:18:13;3.07;;;1.10;;
8913;SDS011;4492;48.736;9.092;2023-02-03T07:20:39;6.50;;;1.00;;
8913;SDS011;4492;48.736;9.092;2023-02-03T07:23:05;4.37;;;1.13;;
8913;SDS011;4492;48.736;9.092;2023-02-03T07:25:30;3.53;;;1.10;;
8913;SDS011;4492;48.736;9.092;2023-02-03T07:27:56;2.93;;;1.10;;
8913;SDS011;4492;48.736;9.092;2023-02-03T07:30:21;2.97;;;0.87;;
8913;SDS011;4492;48.736;9.092;2023-02-03T07:32:50;4.37;;;1.10;;
8913;SDS011;4492;48.736;9.092;2023-02-03T07:35:17;3.33;;;1.40;;
8913;SDS011;4492;48.736;9.092;2023-02-03T07:37:43;3.70;;;1.17;;
8913;SDS011;4492;48.736;9.092;2023-02-03T07:40:09;1.30;;;1.20;;
8913;SDS011;4492;48.736;9.092;2023-02-03T07:42:37;3.07;;;1.00;;
8913;SDS011;4492;48.736;9.092;2023-02-03T07:45:07;3.97;;;1.17;;
8913;SDS011;4492;48.736;9.092;2023-02-03T07:47:33;3.20;;;1.50;;
8913;SDS011;4492;48.736;9.092;2023-02-03T07:49:59;4.07;;;1.30;;
8913;SDS011;4492;48.736;9.092;2023-02-03T07:52:25;2.97;;;1.37;;
8913;SDS011;4492;48.736;9.092;2023-02-03T07:54:50;3.40;;;1.40;;
8913;SDS011;4492;48.736;9.092;2023-02-03T07:57:16;2.00;;;1.20;;
8913;SDS011;4492;48.736;9.092;2023-02-03T07:59:41;2.07;;;1.50;;
8913;SDS011;4492;48.736;9.092;2023-02-03T08:02:07;2.47;;;1.60;;
8913;SDS011;4492;48.736;9.092;2023-02-03T08:04:35;4.27;;;1.93;;
8913;SDS011;4492;48.736;9.092;2023-02-03T08:07:01;2.90;;;1.77;;
8913;SDS011;4492;48.736;9.092;2023-02-03T08:09:27;3.63;;;1.83;;
8913;SDS011;4492;48.736;9.092;2023-02-03T08:11:52;5.67;;;1.73;;
8913;SDS011;4492;48.736;9.092;2023-02-03T08:14:18;4.40;;;1.73;;
8913;SDS011;4492;48.736;9.092;2023-02-03T08:16:43;3.50;;;1.40;;
8913;SDS011;4492;48.736;9.092;2023-02-03T08:19:10;4.07;;;1.63;;
8913;SDS011;4492;48.736;9.092;2023-02-03T08:21:35;2.73;;;2.07;;
8913;SDS011;4492;48.736;9.092;2023-02-03T08:24:01;4.23;;;1.90;;
8913;SDS011;4492;48.736;9.092;2023-02-03T08:26:27;2.67;;;1.93;;
8913;SDS011;4492;48.736;9.092;2023-02-03T08:28:52;4.17;;;1.97;;
8913;SDS011;4492;48.736;9.092;2023-02-03T08:31:18;7.67;;;2.10;;
8913;SDS011;4492;48.736;9.092;2023-02-03T08:33:43;3.33;;;1.70;;
8913;SDS011;4492;48.736;9.092;2023-02-03T08:36:09;4.60;;;1.90;;
8913;SDS011;4492;48.736;9.092;2023-02-03T08:38:35;3.13;;;1.80;;
8913;SDS011;4492;48.736;9.092;2023-02-03T08:41:06;3.87;;;2.37;;
8913;SDS011;4492;48.736;9.092;2023-02-03T08:43:33;3.53;;;2.13;;
8913;SDS011;4492;48.736;9.092;2023-02-03T08:46:03;6.43;;;2.33;;
8913;SDS011;4492;48.736;9.092;2023-02-03T08:48:29;3.63;;;2.30;;
8913;SDS011;4492;48.736;9.092;2023-02-03T08:50:55;4.33;;;2.20;;
8913;SDS011;4492;48.736;9.092;2023-02-03T08:53:20;4.03;;;2.10;;
8913;SDS011;4492;48.736;9.092;2023-02-03T08:55:47;5.20;;;2.10;;
8913;SDS011;4492;48.736;9.092;2023-02-03T08:58:13;3.83;;;2.00;;
8913;SDS011;4492;48.736;9.092;2023-02-03T09:00:38;2.87;;;2.00;;
8913;SDS011;4492;48.736;9.092;2023-02-03T09:03:04;3.47;;;2.23;;
8913;SDS011;4492;48.736;9.092;2023-02-03T09:05:30;3.73;;;1.90;;
8913;SDS011;4492;48.736;9.092;2023-02-03T09:07:56;4.83;;;2.23;;
8913;SDS011;4492;48.736;9.092;2023-02-03T09:10:22;5.23;;;2.37;;
8913;SDS011;4492;48.736;9.092;2023-02-03T09:12:47;7.10;;;2.30;;
8913;SDS011;4492;48.736;9.092;2023-02-03T09:15:13;3.00;;;1.80;;
8913;SDS011;4492;48.736;9.092;2023-02-03T09:17:38;4.33;;;2.17;;
8913;SDS011;4492;48.736;9.092;2023-02-03T09:20:04;3.67;;;2.10;;
8913;SDS011;4492;48.736;9.092;2023-02-03T09:22:30;7.13;;;2.10;;
8913;SDS011;4492;48.736;9.092;2023-02-03T09:24:56;2.90;;;1.90;;
8913;SDS011;4492;48.736;9.092;2023-02-03T09:27:22;6.57;;;2.20;;
8913;SDS011;4492;48.736;9.092;2023-02-03T09:29:47;2.03;;;1.87;;
8913;SDS011;4492;48.736;9.092;2023-02-03T09:32:13;2.17;;;1.57;;
8913;SDS011;4492;48.736;9.092;2023-02-03T09:34:38;3.57;;;1.40;;
8913;SDS011;4492;48.736;9.092;2023-02-03T09:37:05;8.93;;;1.87;;
8913;SDS011;4492;48.736;9.092;2023-02-03T09:39:31;5.40;;;1.60;;
8913;SDS011;4492;48.736;9.092;2023-02-03T09:42:08;3.03;;;1.50;;
8913;SDS011;4492;48.736;9.092;2023-02-03T09:45:32;2.87;;;1.73;;
8913;SDS011;4492;48.736;9.092;2023-02-03T09:48:02;2.20;;;1.47;;
8913;SDS011;4492;48.736;9.092;2023-02-03T09:50:42;3.93;;;1.40;;
8913;SDS011;4492;48.736;9.092;2023-02-03T09:53:44;3.73;;;1.63;;
8913;SDS011;4492;48.736;9.092;2023-02-03T09:56:11;2.27;;;1.80;;
8913;SDS011;4492;48.736;9.092;2023-02-03T09:58:48;2.17;;;1.30;;
8913;SDS011;4492;48.736;9.092;2023-02-03T10:01:14;3.37;;;1.30;;
8913;SDS011;4492;48.736;9.092;2023-02-03T10:03:45;5.30;;;1.73;;
8913;SDS011;4492;48.736;9.092;2023-02-03T10:06:30;6.57;;;1.67;;
8913;SDS011;4492;48.736;9.092;2023-02-03T10:12:17;2.80;;;1.50;;
8913;SDS011;4492;48.736;9.092;2023-02-03T10:17:38;1.37;;;1.27;;
8913;SDS011;4492;48.736;9.092;2023-02-03T10:20:15;3.67;;;1.73;;
8913;SDS011;4492;48.736;9.092;2023-02-03T10:22:53;4.90;;;1.50;;
8913;SDS011;4492;48.736;9.092;2023-02-03T10:25:36;2.80;;;1.60;;
8913;SDS011;4492;48.736;9.092;2023-02-03T10:28:08;1.93;;;1.43;;
8913;SDS011;4492;48.736;9.092;2023-02-03T10:30:43;1.87;;;1.40;;
8913;SDS011;4492;48.736;9.092;2023-02-03T10:33:13;2.80;;;1.20;;
8913;SDS011;4492;48.736;9.092;2023-02-03T10:35:48;8.40;;;1.37;;
8913;SDS011;4492;48.736;9.092;2023-02-03T10:38:22;6.03;;;2.37;;
8913;SDS011;4492;48.736;9.092;2023-02-03T10:40:59;1.33;;;0.70;;
8913;SDS011;4492;48.736;9.092;2023-02-03T10:43:25;2.50;;;1.17;;
8913;SDS011;4492;48.736;9.092;2023-02-03T10:46:15;2.20;;;0.50;;
8913;SDS011;4492;48.736;9.092;2023-02-03T10:48:42;0.63;;;0.60;;
8913;SDS011;4492;48.736;9.092;2023-02-03T10:51:11;4.20;;;0.40;;
8913;SDS011;4492;48.736;9.092;2023-02-03T10:53:42;0.40;;;0.40;;
8913;SDS011;4492;48.736;9.092;2023-02-03T10:56:10;4.83;;;1.57;;
8913;SDS011;4492;48.736;9.092;2023-02-03T10:58:46;1.07;;;0.30;;
8913;SDS011;4492;48.736;9.092;2023-02-03T11:01:16;1.33;;;0.90;;
8913;SDS011;4492;48.736;9.092;2023-02-03T11:03:52;3.53;;;0.40;;
8913;SDS011;4492;48.736;9.092;2023-02-03T11:06:24;4.13;;;0.50;;
8913;SDS011;4492;48.736;9.092;2023-02-03T11:08:51;0.70;;;0.40;;
8913;SDS011;4492;48.736;9.092;2023-02-03T11:13:51;2.30;;;0.40;;
8913;SDS011;4492;48.736;9.092;2023-02-03T11:16:34;2.37;;;0.90;;
8913;SDS011;4492;48.736;9.092;2023-02-03T11:19:04;1.00;;;0.70;;
8913;SDS011;4492;48.736;9.092;2023-02-03T11:21:42;0.90;;;0.43;;
8913;SDS011;4492;48.736;9.092;2023-02-03T11:24:25;0.33;;;0.33;;
8913;SDS011;4492;48.736;9.092;2023-02-03T11:27:00;0.50;;;0.43;;
8913;SDS011;4492;48.736;9.092;2023-02-03T11:29:31;0.80;;;0.40;;
8913;SDS011;4492;48.736;9.092;2023-02-03T11:34:55;0.43;;;0.33;;
8913;SDS011;4492;48.736;9.092;2023-02-03T11:37:39;1.03;;;0.37;;
8913;SDS011;4492;48.736;9.092;2023-02-03T11:42:32;2.10;;;0.20;;
8913;SDS011;4492;48.736;9.092;2023-02-03T11:45:23;0.90;;;0.50;;
8913;SDS011;4492;48.736;9.092;2023-02-03T12:12:29;0.60;;;0.33;;
8913;SDS011;4492;48.736;9.092;2023-02-03T12:15:43;0.60;;;0.40;;
8913;SDS011;4492;48.736;9.092;2023-02-03T12:31:46;0.90;;;0.30;;
8913;SDS011;4492;48.736;9.092;2023-02-03T12:37:01;0.10;;;0.10;;
8913;SDS011;4492;48.736;9.092;2023-02-03T12:42:18;0.20;;;0.20;;
8913;SDS011;4492;48.736;9.092;2023-02-03T12:44:53;0.20;;;0.20;;
8913;SDS011;4492;48.736;9.092;2023-02-03T12:47:36;1.20;;;0.40;;
8913;SDS011;4492;48.736;9.092;2023-02-03T12:52:53;0.27;;;0.27;;
8913;SDS011;4492;48.736;9.092;2023-02-03T12:58:10;0.67;;;0.30;;
8913;SDS011;4492;48.736;9.092;2023-02-03T13:00:45;0.20;;;0.10;;
8913;SDS011;4492;48.736;9.092;2023-02-03T13:06:09;1.07;;;0.30;;
8913;SDS011;4492;48.736;9.092;2023-02-03T13:16:54;0.40;;;0.33;;
8913;SDS011;4492;48.736;9.092;2023-02-03T13:19:24;1.03;;;0.30;;
8913;SDS011;4492;48.736;9.092;2023-02-03T13:21:53;0.10;;;0.10;;
8913;SDS011;4492;48.736;9.092;2023-02-03T13:24:19;0.17;;;0.10;;
8913;SDS011;4492;48.736;9.092;2023-02-03T13:32:33;0.30;;;0.30;;
8913;SDS011;4492;48.736;9.092;2023-02-03T13:35:29;0.10;;;0.10;;
8913;SDS011;4492;48.736;9.092;2023-02-03T13:38:28;0.20;;;0.20;;
8913;SDS011;4492;48.736;9.092;2023-02-03T13:41:18;0.27;;;0.23;;
8913;SDS011;4492;48.736;9.092;2023-02-03T13:43:58;0.63;;;0.40;;
8913;SDS011;4492;48.736;9.092;2023-02-03T13:46:25;0.10;;;0.10;;
8913;SDS011;4492;48.736;9.092;2023-02-03T13:48:55;0.40;;;0.30;;
8913;SDS011;4492;48.736;9.092;2023-02-03T13:51:24;0.20;;;0.20;;
8913;SDS011;4492;48.736;9.092;2023-02-03T13:53:58;0.30;;;0.23;;
8913;SDS011;4492;48.736;9.092;2023-02-03T13:56:30;0.20;;;0.20;;
8913;SDS011;4492;48.736;9.092;2023-02-03T14:04:07;0.17;;;0.10;;
8913;SDS011;4492;48.736;9.092;2023-02-03T14:06:54;0.87;;;0.33;;
8913;SDS011;4492;48.736;9.092;2023-02-03T14:17:06;0.20;;;0.20;;
8913;SDS011;4492;48.736;9.092;2023-02-03T14:19:53;1.17;;;0.20;;
8913;SDS011;4492;48.736;9.092;2023-02-03T14:22:19;0.27;;;0.23;;
8913;SDS011;4492;48.736;9.092;2023-02-03T14:24:45;0.20;;;0.20;;
8913;SDS011;4492;48.736;9.092;2023-02-03T14:27:17;0.53;;;0.30;;
8913;SDS011;4492;48.736;9.092;2023-02-03T14:29:45;0.30;;;0.30;;
8913;SDS011;4492;48.736;9.092;2023-02-03T14:32:47;0.20;;;0.20;;
8913;SDS011;4492;48.736;9.092;2023-02-03T14:35:19;0.90;;;0.20;;
8913;SDS011;4492;48.736;9.092;2023-02-03T14:38:01;0.20;;;0.20;;
8913;SDS011;4492;48.736;9.092;2023-02-03T14:40:33;0.30;;;0.30;;
8913;SDS011;4492;48.736;9.092;2023-02-03T14:46:25;0.30;;;0.30;;
8913;SDS011;4492;48.736;9.092;2023-02-03T14:49:08;0.60;;;0.30;;
8913;SDS011;4492;48.736;9.092;2023-02-03T14:57:42;0.20;;;0.20;;
8913;SDS011;4492;48.736;9.092;2023-02-03T15:11:02;1.43;;;0.27;;
8913;SDS011;4492;48.736;9.092;2023-02-03T15:13:49;0.47;;;0.40;;
8913;SDS011;4492;48.736;9.092;2023-02-03T15:16:17;0.53;;;0.20;;
8913;SDS011;4492;48.736;9.092;2023-02-03T15:18:45;5.37;;;1.77;;
8913;SDS011;4492;48.736;9.092;2023-02-03T15:21:17;1.13;;;0.43;;
8913;SDS011;4492;48.736;9.092;2023-02-03T15:23:44;1.17;;;0.30;;
8913;SDS011;4492;48.736;9.092;2023-02-03T15:28:39;1.00;;;0.60;;
8913;SDS011;4492;48.736;9.092;2023-02-03T15:33:33;0.40;;;0.40;;
8913;SDS011;4492;48.736;9.092;2023-02-03T15:36:13;0.30;;;0.30;;
8913;SDS011;4492;48.736;9.092;2023-02-03T15:38:56;0.30;;;0.30;;
8913;SDS011;4492;48.736;9.092;2023-02-03T15:41:34;0.37;;;0.30;;
8913;SDS011;4492;48.736;9.092;2023-02-03T15:44:01;0.83;;;0.60;;
8913;SDS011;4492;48.736;9.092;2023-02-03T15:46:37;0.30;;;0.30;;
8913;SDS011;4492;48.736;9.092;2023-02-03T15:51:37;0.53;;;0.37;;
8913;SDS011;4492;48.736;9.092;2023-02-03T15:54:14;0.87;;;0.30;;
8913;SDS011;4492;48.736;9.092;2023-02-03T15:56:46;0.33;;;0.30;;
8913;SDS011;4492;48.736;9.092;2023-02-03T15:59:33;0.37;;;0.33;;
8913;SDS011;4492;48.736;9.092;2023-02-03T16:02:01;0.23;;;0.23;;
8913;SDS011;4492;48.736;9.092;2023-02-03T16:04:36;1.30;;;0.40;;
8913;SDS011;4492;48.736;9.092;2023-02-03T16:07:01;1.00;;;0.50;;
8913;SDS011;4492;48.736;9.092;2023-02-03T16:12:04;2.10;;;0.30;;
8913;SDS011;4492;48.736;9.092;2023-02-03T16:14:47;0.33;;;0.33;;
8913;SDS011;4492;48.736;9.092;2023-02-03T16:17:55;0.47;;;0.43;;
8913;SDS011;4492;48.736;9.092;2023-02-03T16:22:35;0.40;;;0.40;;
8913;SDS011;4492;48.736;9.092;2023-02-03T16:25:13;0.53;;;0.40;;
8913;SDS011;4492;48.736;9.092;2023-02-03T16:27:43;0.40;;;0.40;;
8913;SDS011;4492;48.736;9.092;2023-02-03T16:33:01;1.73;;;0.40;;
8913;SDS011;4492;48.736;9.092;2023-02-03T16:35:52;3.63;;;0.33;;
8913;SDS011;4492;48.736;9.092;2023-02-03T16:38:45;0.30;;;0.27;;
8913;SDS011;4492;48.736;9.092;2023-02-03T16:41:29;0.20;;;0.20;;
8913;SDS011;4492;48.736;9.092;2023-02-03T16:44:14;0.70;;;0.40;;
8913;SDS011;4492;48.736;9.092;2023-02-03T16:46:59;0.43;;;0.30;;
8913;SDS011;4492;48.736;9.092;2023-02-03T16:49:43;0.50;;;0.30;;
8913;SDS011;4492;48.736;9.092;2023-02-03T16:52:27;0.50;;;0.37;;
8913;SDS011;4492;48.736;9.092;2023-02-03T16:54:53;0.47;;;0.47;;
8913;SDS011;4492;48.736;9.092;2023-02-03T16:57:18;0.50;;;0.37;;
8913;SDS011;4492;48.736;9.092;2023-02-03T16:59:44;1.57;;;0.93;;
8913;SDS011;4492;48.736;9.092;2023-02-03T17:02:09;0.43;;;0.40;;
8913;SDS011;4492;48.736;9.092;2023-02-03T17:04:35;0.30;;;0.30;;
8913;SDS011;4492;48.736;9.092;2023-02-03T17:07:01;0.60;;;0.60;;
8913;SDS011;4492;48.736;9.092;2023-02-03T17:09:29;1.10;;;0.30;;
8913;SDS011;4492;48.736;9.092;2023-02-03T17:11:58;0.60;;;0.40;;
8913;SDS011;4492;48.736;9.092;2023-02-03T17:14:27;0.47;;;0.37;;
8913;SDS011;4492;48.736;9.092;2023-02-03T17:16:54;1.07;;;0.40;;
8913;SDS011;4492;48.736;9.092;2023-02-03T17:19:19;0.50;;;0.40;;
8913;SDS011;4492;48.736;9.092;2023-02-03T17:21:45;0.60;;;0.50;;
8913;SDS011;4492;48.736;9.092;2023-02-03T17:24:11;0.33;;;0.33;;
8913;SDS011;4492;48.736;9.092;2023-02-03T17:26:38;1.80;;;0.57;;
8913;SDS011;4492;48.736;9.092;2023-02-03T17:29:03;0.70;;;0.67;;
8913;SDS011;4492;48.736;9.092;2023-02-03T17:31:29;1.17;;;0.50;;
8913;SDS011;4492;48.736;9.092;2023-02-03T17:33:55;0.50;;;0.40;;
8913;SDS011;4492;48.736;9.092;2023-02-03T17:36:21;0.93;;;0.50;;
8913;SDS011;4492;48.736;9.092;2023-02-03T17:38:49;1.63;;;0.50;;
8913;SDS011;4492;48.736;9.092;2023-02-03T17:41:19;0.30;;;0.30;;
8913;SDS011;4492;48.736;9.092;2023-02-03T17:43:46;0.30;;;0.20;;
8913;SDS011;4492;48.736;9.092;2023-02-03T17:46:13;0.97;;;0.47;;
8913;SDS011;4492;48.736;9.092;2023-02-03T17:48:40;0.60;;;0.60;;
8913;SDS011;4492;48.736;9.092;2023-02-03T17:51:10;0.50;;;0.50;;
8913;SDS011;4492;48.736;9.092;2023-02-03T17:53:38;0.70;;;0.40;;
8913;SDS011;4492;48.736;9.092;2023-02-03T17:56:08;0.30;;;0.30;;
8913;SDS011;4492;48.736;9.092;2023-02-03T17:58:36;0.30;;;0.30;;
8913;SDS011;4492;48.736;9.092;2023-02-03T18:01:12;0.30;;;0.30;;